sensor_id;sensor_type;location;lat;lon;timestamp;temperature;humidity
6740;DHT22;3407;49.882;10.920;2022-08-03T00:00:16;17.40;99.90
6740;DHT22;3407;49.882;10.920;2022-08-03T00:05:12;17.30;1.00
6740;DHT22;3407;49.882;10.920;2022-08-03T00:10:08;17.30;1.00
6740;DHT22;3407;49.882;10.920;2022-08-03T00:15:04;17.10;99.90
6740;DHT22;3407;49.882;10.920;2022-08-03T00:19:59;17.00;99.90
6740;DHT22;3407;49.882;10.920;2022-08-03T00:24:55;16.90;99.90
6740;DHT22;3407;49.882;10.920;2022-08-03T00:29:50;16.80;99.90
6740;DHT22;3407;49.882;10.920;2022-08-03T00:34:46;16.80;99.90
6740;DHT22;3407;49.882;10.920;2022-08-03T00:39:41;16.70;99.90
6740;DHT22;3407;49.882;10.920;2022-08-03T00:44:43;16.80;99.90
6740;DHT22;3407;49.882;10.920;2022-08-03T00:49:39;16.70;99.90
6740;DHT22;3407;49.882;10.920;2022-08-03T00:54:36;16.70;99.90
6740;DHT22;3407;49.882;10.920;2022-08-03T00:59:32;16.70;99.90
6740;DHT22;3407;49.882;10.920;2022-08-03T01:04:28;16.60;99.90
6740;DHT22;3407;49.882;10.920;2022-08-03T01:09:37;16.40;99.90
6740;DHT22;3407;49.882;10.920;2022-08-03T01:14:57;16.30;99.90
6740;DHT22;3407;49.882;10.920;2022-08-03T01:20:11;16.20;1.00
6740;DHT22;3407;49.882;10.920;2022-08-03T01:30:23;16.30;1.00
6740;DHT22;3407;49.882;10.920;2022-08-03T01:35:38;16.20;1.00
6740;DHT22;3407;49.882;10.920;2022-08-03T01:40:39;16.10;1.00
6740;DHT22;3407;49.882;10.920;2022-08-03T01:45:36;16.00;1.00
6740;DHT22;3407;49.882;10.920;2022-08-03T01:50:33;15.90;1.00
6740;DHT22;3407;49.882;10.920;2022-08-03T01:55:30;15.80;1.00
6740;DHT22;3407;49.882;10.920;2022-08-03T02:00:27;15.70;1.00
6740;DHT22;3407;49.882;10.920;2022-08-03T02:05:24;15.60;1.00
6740;DHT22;3407;49.882;10.920;2022-08-03T02:10:22;15.60;1.00
6740;DHT22;3407;49.882;10.920;2022-08-03T02:15:18;15.60;1.00
6740;DHT22;3407;49.882;10.920;2022-08-03T02:20:15;15.50;1.00
6740;DHT22;3407;49.882;10.920;2022-08-03T02:25:12;15.50;1.00
6740;DHT22;3407;49.882;10.920;2022-08-03T02:30:09;15.50;1.00
6740;DHT22;3407;49.882;10.920;2022-08-03T02:35:10;15.40;1.00
6740;DHT22;3407;49.882;10.920;2022-08-03T02:40:07;15.30;1.00
6740;DHT22;3407;49.882;10.920;2022-08-03T02:45:06;15.20;1.00
6740;DHT22;3407;49.882;10.920;2022-08-03T02:50:05;15.20;1.00
6740;DHT22;3407;49.882;10.920;2022-08-03T02:55:03;15.10;1.00
6740;DHT22;3407;49.882;10.920;2022-08-03T03:00:00;15.00;1.00
6740;DHT22;3407;49.882;10.920;2022-08-03T03:04:56;15.00;1.00
6740;DHT22;3407;49.882;10.920;2022-08-03T03:09:53;15.00;1.00
6740;DHT22;3407;49.882;10.920;2022-08-03T03:14:49;15.10;1.00
6740;DHT22;3407;49.882;10.920;2022-08-03T03:19:45;15.10;1.00
6740;DHT22;3407;49.882;10.920;2022-08-03T03:24:41;15.20;1.00
6740;DHT22;3407;49.882;10.920;2022-08-03T03:29:37;15.20;1.00
6740;DHT22;3407;49.882;10.920;2022-08-03T03:34:33;15.30;1.00
6740;DHT22;3407;49.882;10.920;2022-08-03T03:39:28;15.20;1.00
6740;DHT22;3407;49.882;10.920;2022-08-03T03:44:28;15.10;1.00
6740;DHT22;3407;49.882;10.920;2022-08-03T03:49:25;15.20;1.00
6740;DHT22;3407;49.882;10.920;2022-08-03T03:54:21;15.20;1.00
6740;DHT22;3407;49.882;10.920;2022-08-03T03:59:16;15.20;1.00
6740;DHT22;3407;49.882;10.920;2022-08-03T04:04:12;15.10;1.00
6740;DHT22;3407;49.882;10.920;2022-08-03T04:09:26;15.00;1.00
6740;DHT22;3407;49.882;10.920;2022-08-03T04:14:41;14.80;1.00
6740;DHT22;3407;49.882;10.920;2022-08-03T04:19:44;14.80;1.00
6740;DHT22;3407;49.882;10.920;2022-08-03T04:24:43;14.70;1.00
6740;DHT22;3407;49.882;10.920;2022-08-03T04:29:45;14.80;1.00
6740;DHT22;3407;49.882;10.920;2022-08-03T04:34:41;15.00;1.00
6740;DHT22;3407;49.882;10.920;2022-08-03T04:39:38;15.40;1.00
6740;DHT22;3407;49.882;10.920;2022-08-03T04:44:38;15.80;1.00
6740;DHT22;3407;49.882;10.920;2022-08-03T04:49:37;16.00;99.90
6740;DHT22;3407;49.882;10.920;2022-08-03T04:54:44;16.30;1.00
6740;DHT22;3407;49.882;10.920;2022-08-03T04:59:40;16.80;1.00
6740;DHT22;3407;49.882;10.920;2022-08-03T05:04:35;17.30;99.90
6740;DHT22;3407;49.882;10.920;2022-08-03T05:09:33;17.60;99.90
6740;DHT22;3407;49.882;10.920;2022-08-03T05:14:32;18.10;1.00
6740;DHT22;3407;49.882;10.920;2022-08-03T05:19:27;18.60;99.90
6740;DHT22;3407;49.882;10.920;2022-08-03T05:24:23;19.10;99.90
6740;DHT22;3407;49.882;10.920;2022-08-03T05:29:19;20.40;99.90
6740;DHT22;3407;49.882;10.920;2022-08-03T05:34:14;22.60;1.00
6740;DHT22;3407;49.882;10.920;2022-08-03T05:39:10;24.40;99.90
6740;DHT22;3407;49.882;10.920;2022-08-03T05:44:05;25.70;99.90
6740;DHT22;3407;49.882;10.920;2022-08-03T05:49:01;26.60;99.90
6740;DHT22;3407;49.882;10.920;2022-08-03T05:53:56;27.70;99.90
6740;DHT22;3407;49.882;10.920;2022-08-03T05:58:52;28.60;99.90
6740;DHT22;3407;49.882;10.920;2022-08-03T06:03:49;29.90;89.10
6740;DHT22;3407;49.882;10.920;2022-08-03T06:08:45;30.50;67.80
6740;DHT22;3407;49.882;10.920;2022-08-03T06:13:43;30.80;57.60
6740;DHT22;3407;49.882;10.920;2022-08-03T06:18:39;31.10;54.90
6740;DHT22;3407;49.882;10.920;2022-08-03T06:23:35;31.70;47.00
6740;DHT22;3407;49.882;10.920;2022-08-03T06:28:30;32.30;39.80
6740;DHT22;3407;49.882;10.920;2022-08-03T06:33:26;33.10;33.00
6740;DHT22;3407;49.882;10.920;2022-08-03T06:38:21;32.90;28.80
6740;DHT22;3407;49.882;10.920;2022-08-03T06:43:17;32.90;26.80
6740;DHT22;3407;49.882;10.920;2022-08-03T06:48:13;33.30;24.00
6740;DHT22;3407;49.882;10.920;2022-08-03T06:53:09;33.80;22.50
6740;DHT22;3407;49.882;10.920;2022-08-03T06:58:04;33.80;18.40
6740;DHT22;3407;49.882;10.920;2022-08-03T07:03:00;34.30;16.30
6740;DHT22;3407;49.882;10.920;2022-08-03T07:07:56;35.70;14.70
6740;DHT22;3407;49.882;10.920;2022-08-03T07:12:52;34.80;12.60
6740;DHT22;3407;49.882;10.920;2022-08-03T07:17:47;35.70;10.80
6740;DHT22;3407;49.882;10.920;2022-08-03T07:22:43;35.60;9.60
6740;DHT22;3407;49.882;10.920;2022-08-03T07:27:42;36.40;7.00
6740;DHT22;3407;49.882;10.920;2022-08-03T07:32:38;37.50;5.20
6740;DHT22;3407;49.882;10.920;2022-08-03T07:37:34;38.50;1.10
6740;DHT22;3407;49.882;10.920;2022-08-03T07:42:30;39.60;1.00
6740;DHT22;3407;49.882;10.920;2022-08-03T07:47:28;40.50;1.00
6740;DHT22;3407;49.882;10.920;2022-08-03T07:52:24;40.60;1.00
6740;DHT22;3407;49.882;10.920;2022-08-03T07:57:38;40.10;1.00
6740;DHT22;3407;49.882;10.920;2022-08-03T08:02:34;40.50;1.00
6740;DHT22;3407;49.882;10.920;2022-08-03T08:07:29;40.70;1.00
6740;DHT22;3407;49.882;10.920;2022-08-03T08:12:25;41.00;1.00
6740;DHT22;3407;49.882;10.920;2022-08-03T08:17:20;39.90;1.00
6740;DHT22;3407;49.882;10.920;2022-08-03T08:22:16;39.60;1.00
6740;DHT22;3407;49.882;10.920;2022-08-03T08:27:11;39.10;1.00
6740;DHT22;3407;49.882;10.920;2022-08-03T08:32:07;39.50;1.00
6740;DHT22;3407;49.882;10.920;2022-08-03T08:37:03;40.30;1.00
6740;DHT22;3407;49.882;10.920;2022-08-03T08:41:59;41.80;1.00
6740;DHT22;3407;49.882;10.920;2022-08-03T08:46:56;42.90;1.00
6740;DHT22;3407;49.882;10.920;2022-08-03T08:51:57;42.80;1.00
6740;DHT22;3407;49.882;10.920;2022-08-03T08:56:55;41.60;1.00
6740;DHT22;3407;49.882;10.920;2022-08-03T09:01:55;42.20;1.00
6740;DHT22;3407;49.882;10.920;2022-08-03T09:06:52;43.00;1.00
6740;DHT22;3407;49.882;10.920;2022-08-03T09:11:48;43.70;1.00
6740;DHT22;3407;49.882;10.920;2022-08-03T09:16:57;43.80;1.00
6740;DHT22;3407;49.882;10.920;2022-08-03T09:22:15;44.00;1.00
6740;DHT22;3407;49.882;10.920;2022-08-03T09:27:11;44.50;1.00
6740;DHT22;3407;49.882;10.920;2022-08-03T09:32:09;44.70;1.00
6740;DHT22;3407;49.882;10.920;2022-08-03T09:37:12;44.50;1.00
6740;DHT22;3407;49.882;10.920;2022-08-03T09:42:17;44.70;1.00
6740;DHT22;3407;49.882;10.920;2022-08-03T09:47:14;45.20;1.00
6740;DHT22;3407;49.882;10.920;2022-08-03T09:52:13;45.20;1.00
6740;DHT22;3407;49.882;10.920;2022-08-03T09:57:19;45.10;1.00
6740;DHT22;3407;49.882;10.920;2022-08-03T10:02:21;45.40;1.00
6740;DHT22;3407;49.882;10.920;2022-08-03T10:07:19;44.40;1.00
6740;DHT22;3407;49.882;10.920;2022-08-03T10:12:15;42.60;1.00
6740;DHT22;3407;49.882;10.920;2022-08-03T10:17:10;40.70;1.00
6740;DHT22;3407;49.882;10.920;2022-08-03T10:22:11;39.80;1.00
6740;DHT22;3407;49.882;10.920;2022-08-03T10:27:07;39.10;1.00
6740;DHT22;3407;49.882;10.920;2022-08-03T10:32:11;38.90;1.00
6740;DHT22;3407;49.882;10.920;2022-08-03T10:37:10;39.00;1.00
6740;DHT22;3407;49.882;10.920;2022-08-03T10:42:06;40.10;1.00
6740;DHT22;3407;49.882;10.920;2022-08-03T10:47:04;42.10;1.00
6740;DHT22;3407;49.882;10.920;2022-08-03T10:52:00;43.80;1.00
6740;DHT22;3407;49.882;10.920;2022-08-03T10:56:56;44.90;1.00
6740;DHT22;3407;49.882;10.920;2022-08-03T11:02:10;45.60;1.00
6740;DHT22;3407;49.882;10.920;2022-08-03T11:07:22;44.80;1.00
6740;DHT22;3407;49.882;10.920;2022-08-03T11:12:21;44.60;1.00
6740;DHT22;3407;49.882;10.920;2022-08-03T11:17:18;44.10;1.00
6740;DHT22;3407;49.882;10.920;2022-08-03T11:22:14;44.40;1.00
6740;DHT22;3407;49.882;10.920;2022-08-03T11:32:08;46.40;1.00
6740;DHT22;3407;49.882;10.920;2022-08-03T11:37:23;47.10;1.00
6740;DHT22;3407;49.882;10.920;2022-08-03T11:47:19;47.20;1.00
6740;DHT22;3407;49.882;10.920;2022-08-03T11:52:15;47.30;1.00
6740;DHT22;3407;49.882;10.920;2022-08-03T11:57:11;46.60;1.00
6740;DHT22;3407;49.882;10.920;2022-08-03T12:02:12;45.00;1.00
6740;DHT22;3407;49.882;10.920;2022-08-03T12:07:08;44.60;1.00
6740;DHT22;3407;49.882;10.920;2022-08-03T12:12:05;43.60;1.00
6740;DHT22;3407;49.882;10.920;2022-08-03T12:17:00;43.10;1.00
6740;DHT22;3407;49.882;10.920;2022-08-03T12:21:56;43.60;1.00
6740;DHT22;3407;49.882;10.920;2022-08-03T12:26:51;43.60;1.00
6740;DHT22;3407;49.882;10.920;2022-08-03T12:31:47;43.50;1.00
6740;DHT22;3407;49.882;10.920;2022-08-03T12:36:51;44.40;1.00
6740;DHT22;3407;49.882;10.920;2022-08-03T12:41:52;45.00;1.00
6740;DHT22;3407;49.882;10.920;2022-08-03T12:46:56;45.40;1.00
6740;DHT22;3407;49.882;10.920;2022-08-03T12:51:57;45.30;1.00
6740;DHT22;3407;49.882;10.920;2022-08-03T12:56:57;44.40;1.00
6740;DHT22;3407;49.882;10.920;2022-08-03T13:01:53;43.70;1.00
6740;DHT22;3407;49.882;10.920;2022-08-03T13:06:56;43.40;1.00
6740;DHT22;3407;49.882;10.920;2022-08-03T13:12:06;43.10;1.00
6740;DHT22;3407;49.882;10.920;2022-08-03T13:17:02;41.50;1.00
6740;DHT22;3407;49.882;10.920;2022-08-03T13:21:58;39.90;1.00
6740;DHT22;3407;49.882;10.920;2022-08-03T13:26:54;38.60;1.00
6740;DHT22;3407;49.882;10.920;2022-08-03T13:31:49;37.50;1.00
6740;DHT22;3407;49.882;10.920;2022-08-03T13:36:45;36.70;1.00
6740;DHT22;3407;49.882;10.920;2022-08-03T13:41:41;35.80;1.00
6740;DHT22;3407;49.882;10.920;2022-08-03T13:46:36;34.90;1.00
6740;DHT22;3407;49.882;10.920;2022-08-03T13:51:32;34.70;1.00
6740;DHT22;3407;49.882;10.920;2022-08-03T13:56:29;34.70;1.00
6740;DHT22;3407;49.882;10.920;2022-08-03T14:01:25;35.00;1.00
6740;DHT22;3407;49.882;10.920;2022-08-03T14:06:21;35.10;1.00
6740;DHT22;3407;49.882;10.920;2022-08-03T14:11:17;35.10;1.00
6740;DHT22;3407;49.882;10.920;2022-08-03T14:16:13;35.00;1.00
6740;DHT22;3407;49.882;10.920;2022-08-03T14:21:08;34.80;1.00
6740;DHT22;3407;49.882;10.920;2022-08-03T14:26:05;34.80;1.00
6740;DHT22;3407;49.882;10.920;2022-08-03T14:31:02;34.90;1.00
6740;DHT22;3407;49.882;10.920;2022-08-03T14:35:57;34.90;1.00
6740;DHT22;3407;49.882;10.920;2022-08-03T14:40:53;34.90;1.00
6740;DHT22;3407;49.882;10.920;2022-08-03T14:45:50;34.80;1.00
6740;DHT22;3407;49.882;10.920;2022-08-03T14:50:48;34.50;1.00
6740;DHT22;3407;49.882;10.920;2022-08-03T14:55:44;34.00;1.00
6740;DHT22;3407;49.882;10.920;2022-08-03T15:00:43;33.70;1.00
6740;DHT22;3407;49.882;10.920;2022-08-03T15:05:39;33.60;1.00
6740;DHT22;3407;49.882;10.920;2022-08-03T15:10:34;33.50;1.00
6740;DHT22;3407;49.882;10.920;2022-08-03T15:15:31;33.30;1.00
6740;DHT22;3407;49.882;10.920;2022-08-03T15:20:26;33.20;1.00
6740;DHT22;3407;49.882;10.920;2022-08-03T15:25:22;33.20;1.00
6740;DHT22;3407;49.882;10.920;2022-08-03T15:30:17;33.00;1.00
6740;DHT22;3407;49.882;10.920;2022-08-03T15:35:13;32.90;1.00
6740;DHT22;3407;49.882;10.920;2022-08-03T15:40:09;32.80;1.00
6740;DHT22;3407;49.882;10.920;2022-08-03T15:45:05;32.70;1.00
6740;DHT22;3407;49.882;10.920;2022-08-03T15:50:01;32.60;1.00
6740;DHT22;3407;49.882;10.920;2022-08-03T15:54:56;32.60;1.00
6740;DHT22;3407;49.882;10.920;2022-08-03T15:59:52;32.60;1.00
6740;DHT22;3407;49.882;10.920;2022-08-03T16:04:47;32.50;1.00
6740;DHT22;3407;49.882;10.920;2022-08-03T16:09:43;32.50;1.00
6740;DHT22;3407;49.882;10.920;2022-08-03T16:14:38;32.40;1.00
6740;DHT22;3407;49.882;10.920;2022-08-03T16:19:34;32.20;1.00
6740;DHT22;3407;49.882;10.920;2022-08-03T16:24:30;32.20;1.00
6740;DHT22;3407;49.882;10.920;2022-08-03T16:29:25;32.10;1.00
6740;DHT22;3407;49.882;10.920;2022-08-03T16:34:21;32.00;1.00
6740;DHT22;3407;49.882;10.920;2022-08-03T16:39:17;32.00;1.00
6740;DHT22;3407;49.882;10.920;2022-08-03T16:44:12;32.00;1.00
6740;DHT22;3407;49.882;10.920;2022-08-03T16:49:08;31.90;1.00
6740;DHT22;3407;49.882;10.920;2022-08-03T16:54:04;31.80;1.00
6740;DHT22;3407;49.882;10.920;2022-08-03T16:59:00;31.70;1.00
6740;DHT22;3407;49.882;10.920;2022-08-03T17:03:59;31.60;1.00
6740;DHT22;3407;49.882;10.920;2022-08-03T17:08:55;31.60;1.00
6740;DHT22;3407;49.882;10.920;2022-08-03T17:13:50;31.50;1.00
6740;DHT22;3407;49.882;10.920;2022-08-03T17:18:51;31.30;1.00
6740;DHT22;3407;49.882;10.920;2022-08-03T17:28:48;31.20;1.00
6740;DHT22;3407;49.882;10.920;2022-08-03T17:33:46;31.10;1.00
6740;DHT22;3407;49.882;10.920;2022-08-03T17:38:42;31.10;1.00
6740;DHT22;3407;49.882;10.920;2022-08-03T17:43:39;31.00;1.00
6740;DHT22;3407;49.882;10.920;2022-08-03T17:48:35;30.90;1.00
6740;DHT22;3407;49.882;10.920;2022-08-03T17:53:36;30.80;1.00
6740;DHT22;3407;49.882;10.920;2022-08-03T17:58:57;30.70;1.00
6740;DHT22;3407;49.882;10.920;2022-08-03T18:03:56;30.60;1.00
6740;DHT22;3407;49.882;10.920;2022-08-03T18:08:57;30.60;1.00
6740;DHT22;3407;49.882;10.920;2022-08-03T18:14:13;30.60;1.00
6740;DHT22;3407;49.882;10.920;2022-08-03T18:19:09;30.40;1.00
6740;DHT22;3407;49.882;10.920;2022-08-03T18:24:06;30.30;1.00
6740;DHT22;3407;49.882;10.920;2022-08-03T18:29:02;30.10;1.00
6740;DHT22;3407;49.882;10.920;2022-08-03T18:33:59;29.90;1.00
6740;DHT22;3407;49.882;10.920;2022-08-03T18:38:57;29.70;1.00
6740;DHT22;3407;49.882;10.920;2022-08-03T18:43:53;29.30;1.00
6740;DHT22;3407;49.882;10.920;2022-08-03T18:49:14;28.80;1.00
6740;DHT22;3407;49.882;10.920;2022-08-03T18:54:25;28.40;1.00
6740;DHT22;3407;49.882;10.920;2022-08-03T18:59:45;28.10;1.00
6740;DHT22;3407;49.882;10.920;2022-08-03T19:04:46;27.80;1.00
6740;DHT22;3407;49.882;10.920;2022-08-03T19:09:54;27.50;1.90
6740;DHT22;3407;49.882;10.920;2022-08-03T19:14:59;27.20;6.10
6740;DHT22;3407;49.882;10.920;2022-08-03T19:19:56;27.00;10.20
6740;DHT22;3407;49.882;10.920;2022-08-03T19:24:53;26.70;15.20
6740;DHT22;3407;49.882;10.920;2022-08-03T19:29:49;26.50;19.40
6740;DHT22;3407;49.882;10.920;2022-08-03T19:34:46;26.40;22.80
6740;DHT22;3407;49.882;10.920;2022-08-03T19:39:42;26.20;27.20
6740;DHT22;3407;49.882;10.920;2022-08-03T19:44:42;26.00;35.00
6740;DHT22;3407;49.882;10.920;2022-08-03T19:49:40;25.80;42.60
6740;DHT22;3407;49.882;10.920;2022-08-03T19:54:40;25.60;49.00
6740;DHT22;3407;49.882;10.920;2022-08-03T19:59:37;25.50;60.60
6740;DHT22;3407;49.882;10.920;2022-08-03T20:04:35;25.30;81.50
6740;DHT22;3407;49.882;10.920;2022-08-03T20:09:32;25.10;99.90
6740;DHT22;3407;49.882;10.920;2022-08-03T20:14:28;24.90;99.90
6740;DHT22;3407;49.882;10.920;2022-08-03T20:19:25;24.80;99.90
6740;DHT22;3407;49.882;10.920;2022-08-03T20:24:30;24.70;99.90
6740;DHT22;3407;49.882;10.920;2022-08-03T20:29:30;24.50;99.90
6740;DHT22;3407;49.882;10.920;2022-08-03T20:34:27;24.40;99.90
6740;DHT22;3407;49.882;10.920;2022-08-03T20:39:23;24.30;99.90
6740;DHT22;3407;49.882;10.920;2022-08-03T20:44:19;24.20;99.90
6740;DHT22;3407;49.882;10.920;2022-08-03T20:49:18;24.10;99.90
6740;DHT22;3407;49.882;10.920;2022-08-03T20:54:15;24.00;99.90
6740;DHT22;3407;49.882;10.920;2022-08-03T20:59:11;23.90;99.90
6740;DHT22;3407;49.882;10.920;2022-08-03T21:04:08;23.80;99.90
6740;DHT22;3407;49.882;10.920;2022-08-03T21:09:05;23.80;99.90
6740;DHT22;3407;49.882;10.920;2022-08-03T21:14:01;23.60;99.90
6740;DHT22;3407;49.882;10.920;2022-08-03T21:19:02;23.50;99.90
6740;DHT22;3407;49.882;10.920;2022-08-03T21:23:59;23.40;99.90
6740;DHT22;3407;49.882;10.920;2022-08-03T21:28:58;23.20;99.90
6740;DHT22;3407;49.882;10.920;2022-08-03T21:33:57;22.90;99.90
6740;DHT22;3407;49.882;10.920;2022-08-03T21:38:54;22.80;99.90
6740;DHT22;3407;49.882;10.920;2022-08-03T21:43:50;22.70;99.90
6740;DHT22;3407;49.882;10.920;2022-08-03T21:48:47;22.70;99.90
6740;DHT22;3407;49.882;10.920;2022-08-03T21:53:51;22.60;99.90
6740;DHT22;3407;49.882;10.920;2022-08-03T21:58:52;22.50;99.90
6740;DHT22;3407;49.882;10.920;2022-08-03T22:03:52;22.50;99.90
6740;DHT22;3407;49.882;10.920;2022-08-03T22:08:50;22.50;99.90
6740;DHT22;3407;49.882;10.920;2022-08-03T22:13:47;22.40;99.90
6740;DHT22;3407;49.882;10.920;2022-08-03T22:18:44;22.40;99.90
6740;DHT22;3407;49.882;10.920;2022-08-03T22:23:46;22.40;99.90
6740;DHT22;3407;49.882;10.920;2022-08-03T22:28:43;22.30;99.90
6740;DHT22;3407;49.882;10.920;2022-08-03T22:33:39;22.20;99.90
6740;DHT22;3407;49.882;10.920;2022-08-03T22:38:37;22.00;99.90
6740;DHT22;3407;49.882;10.920;2022-08-03T22:43:33;21.90;99.90
6740;DHT22;3407;49.882;10.920;2022-08-03T22:48:33;21.70;99.90
6740;DHT22;3407;49.882;10.920;2022-08-03T22:53:30;21.60;99.90
6740;DHT22;3407;49.882;10.920;2022-08-03T22:58:25;21.50;99.90
6740;DHT22;3407;49.882;10.920;2022-08-03T23:03:26;21.40;99.90
6740;DHT22;3407;49.882;10.920;2022-08-03T23:08:26;21.30;1.00
6740;DHT22;3407;49.882;10.920;2022-08-03T23:13:24;21.30;1.00
6740;DHT22;3407;49.882;10.920;2022-08-03T23:18:23;21.20;1.00
6740;DHT22;3407;49.882;10.920;2022-08-03T23:23:19;21.10;1.00
6740;DHT22;3407;49.882;10.920;2022-08-03T23:28:16;21.10;1.00
6740;DHT22;3407;49.882;10.920;2022-08-03T23:33:11;21.00;1.00
6740;DHT22;3407;49.882;10.920;2022-08-03T23:38:12;21.00;39.60
6740;DHT22;3407;49.882;10.920;2022-08-03T23:43:08;20.90;1.00
6740;DHT22;3407;49.882;10.920;2022-08-03T23:48:05;20.80;1.00
6740;DHT22;3407;49.882;10.920;2022-08-03T23:58:11;20.60;1.00
